Time;durP1;ratioP1;P1;durP2;ratioP2;P2;SDS_P1;SDS_P2;PMS_P1;PMS_P2;Temp;Humidity;BMP_temperature;BMP_pressure;BME280_temperature;BME280_humidity;BME280_pressure;Samples;Min_cycle;Max_cycle;Signal;HPM_P1;HPM_P2
2022/08/18 02:48:15;;;;;;;3.58;1.40;;;18.60;98.10;;;;;;4903124;23;87319;-71
2022/08/18 02:50:47;;;;;;;2.78;1.38;;;18.40;98.90;;;;;;4823678;29;86853;-72
2022/08/18 02:53:23;;;;;;;3.35;1.50;;;18.30;99.10;;;;;;4832860;29;87432;-73
2022/08/18 02:55:49;;;;;;;3.10;1.35;;;18.40;97.80;;;;;;4825046;29;86752;-73
2022/08/18 02:58:15;;;;;;;4.47;1.33;;;18.40;97.20;;;;;;4824239;29;86305;-72
2022/08/18 03:00:41;;;;;;;3.00;1.23;;;18.50;97.20;;;;;;4825353;29;86378;-72
2022/08/18 03:03:07;;;;;;;3.47;1.70;;;18.50;97.60;;;;;;4823238;29;87759;-71
2022/08/18 03:05:33;;;;;;;3.15;1.55;;;18.40;97.40;;;;;;4824662;29;86986;-72
2022/08/18 03:08:00;;;;;;;2.83;1.38;;;18.40;97.40;;;;;;4824766;29;87983;-72
2022/08/18 03:10:26;;;;;;;3.85;1.33;;;18.50;96.90;;;;;;4823998;29;86359;-73
2022/08/18 03:12:52;;;;;;;2.95;1.42;;;18.60;97.00;;;;;;4824156;29;88251;-72
2022/08/18 03:15:17;;;;;;;3.67;1.85;;;18.60;96.80;;;;;;4825117;29;87000;-72
2022/08/18 03:17:43;;;;;;;2.50;1.15;;;18.60;96.60;;;;;;4825186;29;86924;-72
2022/08/18 03:20:09;;;;;;;3.20;1.35;;;18.60;97.20;;;;;;4824974;29;86208;-72
2022/08/18 03:22:37;;;;;;;3.30;1.48;;;18.60;97.90;;;;;;4822932;29;87280;-72
2022/08/18 03:25:03;;;;;;;2.80;1.80;;;18.60;98.00;;;;;;4823215;29;86269;-72
2022/08/18 03:27:29;;;;;;;2.75;1.30;;;18.60;98.20;;;;;;4824187;29;86324;-72
2022/08/18 03:29:56;;;;;;;3.58;1.63;;;18.70;97.80;;;;;;4824977;29;86284;-72
2022/08/18 03:32:22;;;;;;;2.58;1.27;;;18.60;97.90;;;;;;4824484;29;88812;-72
2022/08/18 03:34:47;;;;;;;2.80;1.27;;;18.60;98.00;;;;;;4822928;29;86964;-72
2022/08/18 03:37:16;;;;;;;3.10;1.60;;;18.60;97.70;;;;;;4824530;29;86714;-72
2022/08/18 03:39:42;;;;;;;3.35;1.52;;;18.60;97.40;;;;;;4813912;29;86493;-72
2022/08/18 03:42:09;;;;;;;3.78;1.52;;;18.60;97.90;;;;;;4824579;29;87202;-72
2022/08/18 03:44:36;;;;;;;4.78;1.70;;;18.40;98.80;;;;;;4824708;29;86775;-72
2022/08/18 03:47:03;;;;;;;4.38;1.50;;;18.20;99.90;;;;;;4823198;29;87137;-69
2022/08/18 03:49:30;;;;;;;3.97;1.33;;;18.20;99.90;;;;;;4825166;29;86576;-72
2022/08/18 03:51:59;;;;;;;3.00;1.20;;;18.20;99.90;;;;;;4820346;29;86954;-71
2022/08/18 03:54:25;;;;;;;3.70;1.60;;;18.30;99.90;;;;;;4822854;29;86960;-70
2022/08/18 03:56:53;;;;;;;3.05;1.60;;;18.40;99.80;;;;;;4814924;29;87804;-70
2022/08/18 03:59:22;;;;;;;4.20;1.77;;;18.40;99.90;;;;;;4825198;29;86321;-70
2022/08/18 04:01:53;;;;;;;3.42;1.80;;;18.40;99.90;;;;;;4810082;29;86743;-71
2022/08/18 04:04:24;;;;;;;3.38;1.52;;;18.40;99.90;;;;;;4814515;29;87368;-71
2022/08/18 04:06:58;;;;;;;3.83;1.85;;;18.50;99.90;;;;;;4822220;29;87083;-70
2022/08/18 04:09:27;;;;;;;3.15;1.90;;;18.50;99.90;;;;;;4823657;29;87828;-71
2022/08/18 04:11:53;;;;;;;3.22;1.80;;;18.50;99.90;;;;;;4821002;29;86857;-69
2022/08/18 04:14:23;;;;;;;3.13;1.52;;;18.50;99.90;;;;;;4824369;29;86236;-70
2022/08/18 04:16:49;;;;;;;2.70;1.40;;;18.50;99.90;;;;;;4822668;29;88037;-70
2022/08/18 04:19:16;;;;;;;3.92;1.50;;;18.60;99.90;;;;;;4823358;29;86294;-70
2022/08/18 04:21:43;;;;;;;4.32;1.83;;;18.60;99.90;;;;;;4822163;29;88375;-71
2022/08/18 04:24:12;;;;;;;4.10;1.75;;;18.60;99.90;;;;;;4822477;29;87329;-71
2022/08/18 04:26:44;;;;;;;3.97;2.00;;;18.60;99.90;;;;;;4824413;29;86912;-70
2022/08/18 04:29:10;;;;;;;5.03;1.83;;;18.60;99.90;;;;;;4821843;29;86263;-70
2022/08/18 04:31:36;;;;;;;3.92;1.73;;;18.60;99.90;;;;;;4816711;29;86724;-70
2022/08/18 04:34:03;;;;;;;3.95;1.98;;;18.60;99.90;;;;;;4819591;29;86924;-70
2022/08/18 04:36:32;;;;;;;4.38;2.05;;;18.60;99.90;;;;;;4816948;29;87120;-70
2022/08/18 04:38:58;;;;;;;3.00;1.63;;;18.70;99.90;;;;;;4818599;29;85766;-70
2022/08/18 04:41:26;;;;;;;4.75;2.10;;;18.70;99.90;;;;;;4822694;29;86683;-69
2022/08/18 04:43:57;;;;;;;5.97;2.22;;;18.70;99.90;;;;;;4821991;29;86920;-72
2022/08/18 04:46:24;;;;;;;3.95;1.85;;;18.40;99.90;;;;;;4821874;29;87630;-71
2022/08/18 04:48:51;;;;;;;8.52;2.47;;;18.10;99.90;;;;;;4818667;29;86803;-70
2022/08/18 04:51:18;;;;;;;5.53;1.90;;;18.10;99.90;;;;;;4821904;29;87360;-70
2022/08/18 04:53:45;;;;;;;5.55;1.92;;;18.20;99.90;;;;;;4826447;29;87374;-71
2022/08/18 04:56:25;;;;;;;7.50;2.10;;;18.20;99.90;;;;;;4819927;29;86317;-70
2022/08/18 04:58:55;;;;;;;5.28;1.80;;;18.30;99.90;;;;;;4823514;29;86376;-70
2022/08/18 05:01:24;;;;;;;4.93;1.75;;;18.40;99.90;;;;;;4818363;29;87253;-70
2022/08/18 05:03:52;;;;;;;8.45;2.63;;;18.30;99.90;;;;;;4822955;29;87411;-70
2022/08/18 05:06:19;;;;;;;5.68;2.50;;;18.10;99.90;;;;;;4822016;29;86740;-70
2022/08/18 05:08:47;;;;;;;7.00;2.47;;;18.00;99.90;;;;;;4820992;29;86993;-70
2022/08/18 05:11:13;;;;;;;7.28;2.65;;;17.90;99.90;;;;;;4819477;29;89359;-70
2022/08/18 05:13:39;;;;;;;5.28;2.30;;;17.90;99.90;;;;;;4820832;29;87660;-70
2022/08/18 05:16:06;;;;;;;5.00;2.17;;;18.00;99.90;;;;;;4817583;29;86889;-70
2022/08/18 05:18:39;;;;;;;6.10;3.00;;;18.00;99.90;;;;;;4818743;29;86351;-71
2022/08/18 05:21:14;;;;;;;5.70;2.72;;;18.10;99.90;;;;;;4822008;29;86578;-71
2022/08/18 05:23:45;;;;;;;4.50;2.42;;;18.00;99.90;;;;;;4822516;29;86594;-70
2022/08/18 05:26:13;;;;;;;6.60;2.65;;;18.10;99.90;;;;;;4821563;29;87154;-70
2022/08/18 05:28:40;;;;;;;8.38;2.53;;;18.20;99.90;;;;;;4822714;29;85837;-70
2022/08/18 05:31:18;;;;;;;6.15;2.95;;;18.30;99.90;;;;;;4821806;29;86553;-69
2022/08/18 05:33:45;;;;;;;4.57;2.58;;;18.30;99.90;;;;;;4819058;29;87002;-70
2022/08/18 05:36:47;;;;;;;4.47;2.67;;;18.40;99.90;;;;;;4821309;29;88870;-70
2022/08/18 05:39:37;;;;;;;7.47;2.72;;;18.60;99.90;;;;;;4821156;29;87048;-71
2022/08/18 05:42:16;;;;;;;8.13;2.95;;;18.80;99.90;;;;;;4824204;29;86865;-70
2022/08/18 05:44:48;;;;;;;8.07;3.28;;;18.90;99.90;;;;;;4827250;29;87025;-70
2022/08/18 05:47:17;;;;;;;9.40;3.17;;;19.10;99.90;;;;;;4820418;29;87204;-70
2022/08/18 05:49:47;;;;;;;8.45;2.85;;;19.20;99.90;;;;;;4824008;29;87474;-70
2022/08/18 05:52:35;;;;;;;7.13;2.72;;;19.20;99.90;;;;;;4819354;29;87781;-71
2022/08/18 05:58:00;;;;;;;8.05;3.03;;;19.80;99.90;;;;;;4815607;29;86237;-70
2022/08/18 06:00:28;;;;;;;7.03;3.15;;;19.80;99.90;;;;;;4818561;29;87040;-70
2022/08/18 06:03:14;;;;;;;5.55;3.22;;;19.60;99.90;;;;;;4822975;29;88037;-70
2022/08/18 06:06:01;;;;;;;7.70;2.78;;;19.50;99.90;;;;;;4824081;29;87378;-70
2022/08/18 06:08:37;;;;;;;7.80;3.42;;;20.10;99.90;;;;;;4819664;29;86962;-70
2022/08/18 06:11:03;;;;;;;4.72;2.80;;;20.40;99.90;;;;;;4823094;29;87317;-70
2022/08/18 06:13:34;;;;;;;7.35;3.47;;;20.40;99.90;;;;;;4823628;29;86673;-70
2022/08/18 06:16:38;;;;;;;6.07;3.25;;;20.30;99.90;;;;;;4822956;29;87129;-70
2022/08/18 06:19:25;;;;;;;6.00;2.85;;;20.10;99.90;;;;;;4816951;29;86657;-70
2022/08/18 06:22:09;;;;;;;5.93;2.78;;;19.70;99.90;;;;;;4815746;29;86820;-70
2022/08/18 06:24:45;;;;;;;5.20;2.58;;;19.00;99.90;;;;;;4819176;29;87684;-70
2022/08/18 06:27:23;;;;;;;6.70;2.33;;;18.90;99.90;;;;;;4826205;29;87407;-71
2022/08/18 06:30:13;;;;;;;6.68;2.28;;;19.00;99.90;;;;;;4825968;29;87315;-70
2022/08/18 06:33:00;;;;;;;5.10;2.55;;;19.10;99.90;;;;;;4819395;29;86380;-70
2022/08/18 06:35:36;;;;;;;7.63;3.05;;;19.10;99.90;;;;;;4824338;29;87592;-70
2022/08/18 06:41:14;;;;;;;4.57;1.85;;;18.70;99.90;;;;;;4820713;29;86214;-70
2022/08/18 06:44:22;;;;;;;3.70;1.75;;;19.00;99.90;;;;;;4822945;29;86604;-71
2022/08/18 06:47:03;;;;;;;5.35;2.13;;;19.20;99.90;;;;;;4819008;29;87357;-71
2022/08/18 06:49:47;;;;;;;4.18;2.25;;;19.40;99.90;;;;;;4825111;29;86882;-70
2022/08/18 06:52:34;;;;;;;5.68;2.15;;;19.60;99.90;;;;;;4831786;29;86327;-71
2022/08/18 06:55:12;;;;;;;6.40;2.28;;;20.00;99.90;;;;;;4824250;29;86214;-71
2022/08/18 06:57:52;;;;;;;3.15;2.00;;;20.20;99.90;;;;;;4823467;29;87947;-70
2022/08/18 07:00:18;;;;;;;5.10;2.65;;;20.70;99.90;;;;;;4821783;29;87239;-70
2022/08/18 07:03:02;;;;;;;3.85;2.15;;;21.00;99.90;;;;;;4820046;29;86714;-71
2022/08/18 07:05:32;;;;;;;3.38;1.70;;;21.40;99.90;;;;;;4825647;29;86637;-70
2022/08/18 07:08:29;;;;;;;4.45;2.20;;;22.40;99.80;;;;;;4825154;29;87313;-70
2022/08/18 07:11:09;;;;;;;4.65;2.45;;;25.50;92.60;;;;;;4825329;29;87761;-70
2022/08/18 07:13:39;;;;;;;4.68;2.33;;;26.50;80.40;;;;;;4826543;29;86728;-70
2022/08/18 07:16:27;;;;;;;3.42;2.17;;;25.40;79.10;;;;;;4823504;29;86320;-70
2022/08/18 07:18:54;;;;;;;;;;;23.30;84.20;;;;;;4819070;29;86526;-70
2022/08/18 07:21:30;;;;;;;5.25;1.73;;;22.10;90.20;;;;;;4827523;29;86997;-70
2022/08/18 07:24:08;;;;;;;4.05;2.53;;;21.60;91.90;;;;;;4825059;29;87490;-70
2022/08/18 07:27:16;;;;;;;3.28;2.05;;;20.90;94.10;;;;;;4825902;29;86351;-70
2022/08/18 07:30:02;;;;;;;3.58;1.83;;;20.60;95.50;;;;;;4789013;29;87725;-71
2022/08/18 07:32:46;;;;;;;3.17;1.80;;;20.60;96.60;;;;;;4825461;29;87198;-70
2022/08/18 07:35:20;;;;;;;4.72;2.22;;;20.60;97.00;;;;;;4824250;29;86773;-70
2022/08/18 07:38:01;;;;;;;4.22;1.70;;;20.50;97.40;;;;;;4824718;29;87112;-70
2022/08/18 07:40:34;;;;;;;4.50;1.60;;;20.40;97.50;;;;;;4820861;29;88315;-70
2022/08/18 07:43:24;;;;;;;3.97;2.10;;;20.40;97.60;;;;;;4825955;29;86262;-70
2022/08/18 07:45:54;;;;;;;3.55;2.38;;;20.60;98.10;;;;;;4825513;29;86324;-70
2022/08/18 07:48:29;;;;;;;4.57;2.63;;;20.90;98.10;;;;;;4820128;29;86860;-70
2022/08/18 07:51:33;;;;;;;4.80;2.60;;;21.00;97.40;;;;;;4820550;29;88213;-70
2022/08/18 07:54:01;;;;;;;6.85;2.38;;;21.10;97.40;;;;;;4824191;29;87253;-70
2022/08/18 07:56:31;;;;;;;3.97;2.30;;;21.40;96.90;;;;;;4825101;29;86184;-70
2022/08/18 07:59:09;;;;;;;4.07;2.70;;;21.70;96.80;;;;;;4819120;29;86632;-70
2022/08/18 08:01:43;;;;;;;5.18;2.63;;;21.90;95.00;;;;;;4821492;29;87311;-71
2022/08/18 08:04:21;;;;;;;4.53;2.55;;;21.70;94.50;;;;;;4821889;29;87015;-70
2022/08/18 08:07:03;;;;;;;4.50;2.58;;;21.80;94.80;;;;;;4820029;29;86676;-70
2022/08/18 08:09:45;;;;;;;3.58;1.92;;;21.90;94.40;;;;;;4819195;29;86699;-70
2022/08/18 08:12:43;;;;;;;4.45;2.13;;;22.10;93.20;;;;;;4821778;29;86767;-70
2022/08/18 08:15:25;;;;;;;5.95;2.53;;;22.20;92.80;;;;;;4810390;29;86692;-71
2022/08/18 08:18:09;;;;;;;3.22;2.05;;;22.20;92.30;;;;;;4822004;29;87288;-70
2022/08/18 08:20:53;;;;;;;5.60;2.35;;;22.20;91.60;;;;;;4824466;29;87931;-70
2022/08/18 08:23:44;;;;;;;3.97;2.22;;;22.10;91.70;;;;;;4824523;29;86588;-71
2022/08/18 08:26:32;;;;;;;5.07;2.00;;;21.80;92.30;;;;;;4822696;29;87311;-70
2022/08/18 08:29:09;;;;;;;5.43;2.50;;;21.70;91.70;;;;;;4823291;29;86612;-71
2022/08/18 08:31:59;;;;;;;3.40;2.20;;;21.80;92.50;;;;;;4820886;29;86399;-70
2022/08/18 08:34:43;;;;;;;4.93;2.42;;;21.90;91.60;;;;;;4823437;29;86800;-70
2022/08/18 08:37:16;;;;;;;5.68;2.75;;;22.00;91.60;;;;;;4820657;29;87475;-70
2022/08/18 08:40:07;;;;;;;3.72;2.05;;;22.10;91.20;;;;;;4824242;29;86867;-71
2022/08/18 08:42:51;;;;;;;5.22;2.13;;;22.20;90.90;;;;;;4821074;29;86959;-70
2022/08/18 08:45:19;;;;;;;5.03;2.13;;;22.30;90.50;;;;;;4816288;29;87681;-70
2022/08/18 08:48:13;;;;;;;5.15;2.20;;;22.60;90.40;;;;;;4810851;29;88798;-70
2022/08/18 08:50:45;;;;;;;4.32;2.13;;;22.90;88.70;;;;;;4810823;29;86396;-70
2022/08/18 08:53:22;;;;;;;3.75;2.10;;;23.60;88.50;;;;;;4808625;29;86224;-71
2022/08/18 08:55:52;;;;;;;3.53;2.20;;;24.40;85.60;;;;;;4820237;29;88069;-70
2022/08/18 08:58:36;;;;;;;2.85;1.98;;;24.60;81.30;;;;;;4819014;29;87372;-70
2022/08/18 09:01:03;;;;;;;4.15;2.50;;;24.40;79.40;;;;;;4816012;29;86629;-71
2022/08/18 09:03:44;;;;;;;4.20;2.38;;;24.60;79.10;;;;;;4819099;29;86209;-71
2022/08/18 09:06:48;;;;;;;6.70;2.83;;;24.80;80.30;;;;;;4822747;29;87287;-70
2022/08/18 09:09:41;;;;;;;3.22;1.90;;;24.50;79.70;;;;;;4813787;29;87411;-70
2022/08/18 09:12:21;;;;;;;3.88;2.05;;;24.30;80.50;;;;;;4816202;29;87657;-70
2022/08/18 09:15:18;;;;;;;6.90;2.35;;;25.40;77.10;;;;;;4817959;29;86667;-70
2022/08/18 09:18:01;;;;;;;3.80;2.45;;;26.60;72.70;;;;;;4817187;29;88076;-71
2022/08/18 09:20:45;;;;;;;3.58;2.22;;;27.30;70.90;;;;;;4821007;29;87082;-71
2022/08/18 09:23:19;;;;;;;4.32;2.28;;;27.10;71.60;;;;;;4819432;29;87068;-71
2022/08/18 09:25:46;;;;;;;4.05;2.60;;;27.10;67.10;;;;;;4820820;29;86862;-71
2022/08/18 09:28:17;;;;;;;6.93;2.78;;;27.30;67.30;;;;;;4823210;29;87852;-71
2022/08/18 09:31:04;;;;;;;3.58;2.13;;;27.90;67.90;;;;;;4822739;29;86803;-70
2022/08/18 09:33:32;;;;;;;3.35;2.25;;;28.20;66.90;;;;;;4820090;29;86808;-71
2022/08/18 09:36:16;;;;;;;3.85;2.58;;;27.80;65.20;;;;;;4820625;29;86584;-70
2022/08/18 09:42:06;;;;;;;3.53;2.58;;;27.70;66.50;;;;;;4820370;29;87335;-71
2022/08/18 09:44:47;;;;;;;4.88;2.80;;;29.20;61.80;;;;;;4818651;29;86458;-71
2022/08/18 09:47:24;;;;;;;4.93;2.72;;;30.30;59.80;;;;;;4823745;29;86398;-70
2022/08/18 09:49:52;;;;;;;5.05;2.65;;;30.90;58.30;;;;;;4821268;29;87303;-70
2022/08/18 09:52:21;;;;;;;6.13;3.17;;;30.70;57.80;;;;;;4819791;29;87616;-70
2022/08/18 09:54:58;;;;;;;4.63;2.83;;;29.80;57.70;;;;;;4819708;29;86744;-71
2022/08/18 09:57:33;;;;;;;5.38;2.90;;;29.20;59.60;;;;;;4818040;29;86296;-71
2022/08/18 10:00:26;;;;;;;6.10;2.90;;;29.00;60.60;;;;;;4821075;29;86853;-71
2022/08/18 10:02:51;;;;;;;4.05;2.92;;;28.50;62.80;;;;;;4823761;29;86542;-70
2022/08/18 10:05:18;;;;;;;4.65;3.22;;;28.40;61.10;;;;;;4825883;29;87199;-71
2022/08/18 10:08:15;;;;;;;4.10;2.63;;;28.50;62.10;;;;;;4825674;29;86840;-70
2022/08/18 10:10:57;;;;;;;5.47;2.85;;;28.60;59.80;;;;;;4824217;29;87595;-71
2022/08/18 10:13:48;;;;;;;3.60;2.63;;;28.40;61.60;;;;;;4822072;29;87019;-70
2022/08/18 10:16:37;;;;;;;3.20;2.05;;;28.80;61.30;;;;;;4818081;29;86363;-71
2022/08/18 10:19:09;;;;;;;3.75;2.38;;;28.90;60.80;;;;;;4823797;29;86367;-71
2022/08/18 10:22:00;;;;;;;4.10;1.85;;;29.00;60.00;;;;;;4821507;29;86904;-71
2022/08/18 10:25:07;;;;;;;4.07;3.03;;;29.00;60.90;;;;;;4821157;29;86866;-71
2022/08/18 10:27:45;;;;;;;;;;;29.10;59.80;;;;;;4742566;29;87970;-71
2022/08/18 10:30:33;;;;;;;4.93;2.45;;;28.80;60.20;;;;;;4812951;29;86367;-70
2022/08/18 10:33:05;;;;;;;4.28;2.22;;;29.20;58.70;;;;;;4819344;29;88662;-71
2022/08/18 10:35:40;;;;;;;5.88;2.58;;;29.60;59.70;;;;;;4821764;29;88038;-71
2022/08/18 10:38:17;;;;;;;7.97;3.50;;;29.50;59.50;;;;;;4820017;29;86910;-71
2022/08/18 10:40:54;;;;;;;12.13;4.28;;;29.40;59.80;;;;;;4822604;29;87124;-71
2022/08/18 10:43:38;;;;;;;3.85;2.88;;;29.00;58.70;;;;;;4820178;29;87126;-70
2022/08/18 10:46:13;;;;;;;5.50;2.88;;;28.90;60.00;;;;;;4821068;29;87026;-71
2022/08/18 10:48:38;;;;;;;8.32;2.97;;;28.40;59.80;;;;;;4821513;29;86817;-70
2022/08/18 10:51:14;;;;;;;5.85;3.60;;;27.80;61.50;;;;;;4824749;29;85557;-70
2022/08/18 10:53:58;;;;;;;4.38;2.58;;;26.90;63.50;;;;;;4823410;29;87951;-70
2022/08/18 10:56:51;;;;;;;5.25;2.78;;;26.40;64.20;;;;;;4818280;29;86658;-70
2022/08/18 10:59:26;;;;;;;4.35;3.05;;;25.90;66.30;;;;;;4823086;29;87567;-70
2022/08/18 11:01:58;;;;;;;9.13;3.90;;;25.50;65.80;;;;;;4822283;29;86655;-71
2022/08/18 11:04:29;;;;;;;3.72;1.73;;;25.50;67.40;;;;;;4823159;29;87275;-70
2022/08/18 11:07:02;;;;;;;7.07;2.45;;;25.60;66.70;;;;;;4820065;29;87582;-70
2022/08/18 11:09:30;;;;;;;3.00;1.95;;;25.50;67.00;;;;;;4819183;29;87102;-70
2022/08/18 11:11:59;;;;;;;4.15;2.30;;;25.30;67.10;;;;;;4822012;29;87194;-70
2022/08/18 11:14:43;;;;;;;3.90;2.15;;;25.30;68.10;;;;;;4821146;29;87771;-70
2022/08/18 11:17:24;;;;;;;8.65;2.25;;;25.30;68.60;;;;;;4814197;29;87299;-70
2022/08/18 11:19:51;;;;;;;3.85;1.85;;;25.40;67.60;;;;;;4822777;29;86767;-70
2022/08/18 11:22:36;;;;;;;3.78;2.08;;;25.50;67.70;;;;;;4820424;29;86517;-70
2022/08/18 11:25:19;;;;;;;5.68;1.90;;;25.30;66.80;;;;;;4824398;29;88286;-70
2022/08/18 11:27:46;;;;;;;4.22;2.20;;;25.30;65.90;;;;;;4824063;29;87194;-71
2022/08/18 11:30:12;;;;;;;5.63;2.60;;;25.10;67.50;;;;;;4821418;29;87102;-70
2022/08/18 11:32:40;;;;;;;5.43;2.20;;;25.10;66.50;;;;;;4824165;29;87599;-70
2022/08/18 11:35:09;;;;;;;3.42;1.85;;;25.10;67.30;;;;;;4824839;29;87436;-70
2022/08/18 11:37:42;;;;;;;5.10;2.03;;;25.10;67.60;;;;;;4824820;29;86659;-70
2022/08/18 11:40:16;;;;;;;4.25;1.75;;;25.00;67.40;;;;;;4824284;29;86421;-70
2022/08/18 11:42:59;;;;;;;3.53;2.03;;;24.70;69.50;;;;;;4825291;29;85698;-71
2022/08/18 11:45:30;;;;;;;3.38;1.77;;;24.40;69.80;;;;;;4825582;29;87297;-70
2022/08/18 11:48:16;;;;;;;3.85;2.00;;;24.40;69.40;;;;;;4818489;29;86919;-71
2022/08/18 11:50:54;;;;;;;2.92;1.55;;;24.20;71.20;;;;;;4820305;29;87261;-71
2022/08/18 11:53:32;;;;;;;4.00;1.98;;;24.30;70.60;;;;;;4823100;29;87429;-70
2022/08/18 11:56:13;;;;;;;5.15;2.05;;;24.30;70.90;;;;;;4821010;29;86863;-70
2022/08/18 11:58:45;;;;;;;6.28;2.13;;;24.00;71.30;;;;;;4820145;29;88292;-70
2022/08/18 12:01:32;;;;;;;3.72;1.92;;;23.70;71.90;;;;;;4821261;29;86605;-70
2022/08/18 12:04:13;;;;;;;3.92;2.05;;;23.70;72.30;;;;;;4818608;29;88292;-70
2022/08/18 12:06:58;;;;;;;4.70;2.30;;;23.90;72.40;;;;;;4822956;29;86771;-70
2022/08/18 12:09:36;;;;;;;3.72;1.77;;;24.10;71.30;;;;;;4824614;29;86228;-70
2022/08/18 12:12:05;;;;;;;5.15;1.98;;;24.40;70.90;;;;;;4817547;29;86303;-70
2022/08/18 12:14:49;;;;;;;5.55;2.22;;;24.80;69.50;;;;;;4822212;29;86593;-70
2022/08/18 12:17:14;;;;;;;3.63;1.35;;;24.90;69.40;;;;;;4819303;29;91056;-70
2022/08/18 12:19:40;;;;;;;5.10;2.60;;;24.90;69.30;;;;;;4824878;29;87891;-71
2022/08/18 12:22:17;;;;;;;6.50;1.98;;;24.90;68.90;;;;;;4822482;29;86335;-70
2022/08/18 12:24:45;;;;;;;5.43;2.13;;;24.70;69.80;;;;;;4820601;29;86922;-70
2022/08/18 12:27:14;;;;;;;5.10;1.67;;;24.50;70.50;;;;;;4809160;29;87151;-71
2022/08/18 12:29:40;;;;;;;6.97;2.20;;;24.40;70.10;;;;;;4817442;29;86653;-71
2022/08/18 12:32:06;;;;;;;3.33;1.90;;;24.40;71.50;;;;;;4819358;29;86932;-70
2022/08/18 12:34:32;;;;;;;3.20;1.52;;;24.40;71.40;;;;;;4819239;29;85682;-71
2022/08/18 12:37:01;;;;;;;4.60;2.13;;;24.40;70.90;;;;;;4814712;29;87271;-70
2022/08/18 12:39:27;;;;;;;;;;;24.30;71.30;;;;;;4825715;29;87120;-70
2022/08/18 12:41:54;;;;;;;3.40;1.63;;;24.40;70.70;;;;;;4815679;29;87631;-70
2022/08/18 12:44:20;;;;;;;4.15;2.17;;;24.50;71.20;;;;;;4821997;29;86783;-71
2022/08/18 12:46:46;;;;;;;4.78;2.30;;;24.70;70.80;;;;;;4822284;29;86506;-70
2022/08/18 12:49:23;;;;;;;5.25;2.22;;;24.90;69.30;;;;;;4822520;29;87248;-70
2022/08/18 12:51:53;;;;;;;3.38;2.28;;;24.70;70.50;;;;;;4821714;29;86396;-71
2022/08/18 12:54:19;;;;;;;4.70;2.28;;;24.70;70.40;;;;;;4822246;29;86818;-71
2022/08/18 12:56:49;;;;;;;4.07;1.92;;;24.60;71.70;;;;;;4821961;29;87003;-70
2022/08/18 12:59:15;;;;;;;4.43;2.45;;;24.50;71.90;;;;;;4817669;29;86986;-71
2022/08/18 13:01:41;;;;;;;3.13;1.83;;;24.60;71.60;;;;;;4819288;29;87049;-70
2022/08/18 13:04:07;;;;;;;5.00;2.47;;;24.20;71.80;;;;;;4819526;29;86557;-70
2022/08/18 13:06:36;;;;;;;4.00;2.10;;;23.90;73.10;;;;;;4822176;29;87825;-70
2022/08/18 13:09:02;;;;;;;4.90;2.60;;;23.70;74.30;;;;;;4821039;29;87125;-71
2022/08/18 13:11:28;;;;;;;5.60;2.45;;;23.80;74.00;;;;;;4821202;29;86961;-70
2022/08/18 13:13:55;;;;;;;4.13;2.17;;;23.70;75.10;;;;;;4822062;29;87008;-71
2022/08/18 13:16:21;;;;;;;3.28;1.88;;;23.50;74.80;;;;;;4816515;29;87303;-70
2022/08/18 13:18:47;;;;;;;5.07;2.47;;;23.40;74.80;;;;;;4821264;29;87310;-70
2022/08/18 13:21:15;;;;;;;3.03;1.30;;;23.30;76.40;;;;;;4822487;29;87041;-70
2022/08/18 13:23:41;;;;;;;5.03;2.30;;;23.20;75.80;;;;;;4817409;29;86386;-70
2022/08/18 13:26:14;;;;;;;4.75;2.60;;;23.10;75.80;;;;;;4810324;29;87292;-70
2022/08/18 13:28:41;;;;;;;4.22;2.13;;;23.10;75.50;;;;;;4815701;29;86981;-70
2022/08/18 13:31:06;;;;;;;4.28;1.88;;;23.20;75.10;;;;;;4820454;29;88035;-70
2022/08/18 13:33:33;;;;;;;5.22;2.13;;;23.30;75.00;;;;;;4819892;29;87188;-70
2022/08/18 13:35:59;;;;;;;4.88;2.72;;;23.20;77.10;;;;;;4816981;29;86972;-70
2022/08/18 13:38:25;;;;;;;4.32;2.03;;;23.00;77.10;;;;;;4813936;29;86977;-70
2022/08/18 13:40:57;;;;;;;4.22;2.30;;;23.10;76.20;;;;;;4818457;29;86854;-70
2022/08/18 13:43:29;;;;;;;8.57;2.17;;;23.10;77.70;;;;;;4820571;29;87105;-70
2022/08/18 13:45:55;;;;;;;7.97;2.10;;;23.10;77.80;;;;;;4820153;29;86942;-70
2022/08/18 13:48:21;;;;;;;4.93;2.70;;;23.00;78.50;;;;;;4817938;29;87419;-70
2022/08/18 13:50:46;;;;;;;3.50;1.58;;;22.80;79.10;;;;;;4818783;29;86991;-70
2022/08/18 13:53:19;;;;;;;3.53;1.70;;;22.80;78.80;;;;;;4816391;29;86959;-70
2022/08/18 13:55:46;;;;;;;3.50;1.90;;;22.80;79.50;;;;;;4813162;29;87508;-71
2022/08/18 13:58:11;;;;;;;3.50;1.77;;;22.80;79.70;;;;;;4815894;29;87821;-70
2022/08/18 14:00:38;;;;;;;4.38;1.45;;;22.70;79.10;;;;;;4813352;29;86679;-70
2022/08/18 14:03:05;;;;;;;4.78;2.28;;;22.70;79.20;;;;;;4820214;29;86289;-70
2022/08/18 14:05:32;;;;;;;3.88;2.25;;;22.60;80.10;;;;;;4821720;29;87794;-70
2022/08/18 14:07:58;;;;;;;4.28;2.10;;;22.30;81.20;;;;;;4818776;29;87328;-70
2022/08/18 14:10:24;;;;;;;5.70;2.15;;;22.20;82.00;;;;;;4820806;29;86295;-70
2022/08/18 14:12:56;;;;;;;5.97;2.15;;;22.20;82.90;;;;;;4818484;29;85619;-71
2022/08/18 14:15:23;;;;;;;4.82;2.85;;;22.10;83.40;;;;;;4821476;29;87709;-70
2022/08/18 14:17:49;;;;;;;7.63;3.05;;;22.00;82.20;;;;;;4812847;29;86929;-70
2022/08/18 14:28:32;;;;;;;5.55;3.42;;;21.50;90.00;;;;;;4821984;29;86373;-70
2022/08/18 14:30:59;;;;;;;6.10;2.90;;;21.90;89.40;;;;;;4816666;29;86765;-70
2022/08/18 14:33:27;;;;;;;4.95;3.00;;;22.00;90.00;;;;;;4821459;29;86998;-70
2022/08/18 14:35:54;;;;;;;6.07;2.95;;;22.20;90.40;;;;;;4820935;29;88892;-70
2022/08/18 14:38:20;;;;;;;6.65;3.15;;;22.20;90.90;;;;;;4822025;29;87073;-70
2022/08/18 14:40:47;;;;;;;6.35;3.50;;;22.20;91.20;;;;;;4817386;29;86744;-70
2022/08/18 14:43:16;;;;;;;5.43;3.42;;;22.20;92.00;;;;;;4817806;29;87063;-70
2022/08/18 14:45:46;;;;;;;5.85;3.50;;;22.10;90.20;;;;;;4825832;29;87608;-70
2022/08/18 14:48:17;;;;;;;6.05;3.78;;;21.90;91.90;;;;;;4818842;29;87597;-70
2022/08/18 14:50:47;;;;;;;9.32;3.88;;;21.80;92.30;;;;;;4824941;29;86753;-70
2022/08/18 14:53:14;;;;;;;7.68;3.90;;;21.80;93.10;;;;;;4823851;29;87577;-70
2022/08/18 14:55:40;;;;;;;8.30;4.25;;;21.80;93.40;;;;;;4823638;29;87861;-70
2022/08/18 14:58:07;;;;;;;9.75;4.20;;;21.80;93.40;;;;;;4819455;29;86901;-70
2022/08/18 15:00:34;;;;;;;6.93;4.22;;;21.80;93.00;;;;;;4821897;29;86849;-70
2022/08/18 15:03:00;;;;;;;9.63;4.45;;;21.80;93.30;;;;;;4821441;29;86294;-70
2022/08/18 15:05:31;;;;;;;9.02;4.72;;;21.80;93.70;;;;;;4824944;29;87207;-70
2022/08/18 15:07:57;;;;;;;9.80;4.18;;;21.70;94.00;;;;;;4824853;29;86781;-70
2022/08/18 15:10:23;;;;;;;8.10;4.38;;;21.60;94.70;;;;;;4822815;29;87988;-70
2022/08/18 15:12:50;;;;;;;10.15;4.95;;;21.60;95.20;;;;;;4815334;29;86574;-70
2022/08/18 15:15:16;;;;;;;10.40;4.90;;;21.60;94.90;;;;;;4819676;29;86399;-70
2022/08/18 15:17:42;;;;;;;10.73;5.85;;;21.50;95.40;;;;;;4821681;29;86738;-70
2022/08/18 15:20:10;;;;;;;9.52;5.40;;;21.40;96.60;;;;;;4822983;29;86348;-70
2022/08/18 15:25:40;;;;;;;9.15;5.55;;;21.10;98.60;;;;;;4818431;29;86483;-70
2022/08/18 15:28:07;;;;;;;10.10;5.72;;;21.00;99.90;;;;;;4823210;29;87884;-70
2022/08/18 15:30:35;;;;;;;11.38;4.85;;;20.90;99.90;;;;;;4817669;29;86664;-70
2022/08/18 15:33:01;;;;;;;10.95;5.13;;;20.90;99.90;;;;;;4817609;29;86337;-71
2022/08/18 15:35:28;;;;;;;9.90;4.60;;;20.80;99.90;;;;;;4820294;29;88138;-70
2022/08/18 15:37:54;;;;;;;8.52;4.60;;;20.70;99.90;;;;;;4822790;29;88436;-71
2022/08/18 15:40:25;;;;;;;11.00;4.97;;;20.60;99.90;;;;;;4821509;29;86908;-70
2022/08/18 15:42:56;;;;;;;9.90;5.35;;;20.50;99.90;;;;;;4817444;29;87037;-71
2022/08/18 15:45:26;;;;;;;8.27;4.80;;;20.40;99.90;;;;;;4823474;29;88324;-71
2022/08/18 15:47:53;;;;;;;9.10;5.45;;;20.30;99.90;;;;;;4821757;29;87104;-70
2022/08/18 15:50:19;;;;;;;11.40;4.63;;;20.30;99.90;;;;;;4818335;29;86236;-71
2022/08/18 15:52:51;;;;;;;7.97;4.50;;;20.30;99.90;;;;;;4822979;29;87261;-71
2022/08/18 15:55:18;;;;;;;10.52;4.63;;;20.30;99.90;;;;;;4822522;29;87224;-71
2022/08/18 15:57:44;;;;;;;10.05;4.72;;;20.40;99.90;;;;;;4823096;29;86507;-70
2022/08/18 16:00:15;;;;;;;9.98;4.05;;;20.40;99.90;;;;;;4823381;29;87730;-71
2022/08/18 16:02:41;;;;;;;10.82;4.72;;;20.30;99.90;;;;;;4823070;29;86892;-70
2022/08/18 16:05:07;;;;;;;8.93;3.88;;;20.30;99.90;;;;;;4821299;29;87328;-71
2022/08/18 16:07:36;;;;;;;7.55;4.15;;;20.20;99.90;;;;;;4825448;29;87620;-71
2022/08/18 16:10:02;;;;;;;8.73;4.43;;;20.20;99.90;;;;;;4821538;29;88045;-71
2022/08/18 16:12:28;;;;;;;5.78;2.78;;;20.20;99.90;;;;;;4819774;29;86932;-71
2022/08/18 16:14:53;;;;;;;6.57;3.58;;;20.30;99.90;;;;;;4823877;29;86994;-71
2022/08/18 16:17:20;;;;;;;5.25;3.40;;;20.20;99.90;;;;;;4823954;29;86575;-71
2022/08/18 16:19:47;;;;;;;6.60;3.22;;;20.10;99.90;;;;;;4824235;29;86364;-71
2022/08/18 16:22:13;;;;;;;6.28;2.90;;;19.90;99.90;;;;;;4819265;29;87136;-71
2022/08/18 16:24:39;;;;;;;6.35;3.20;;;19.70;99.90;;;;;;4822696;29;88321;-71
2022/08/18 16:27:05;;;;;;;6.32;3.70;;;19.70;99.90;;;;;;4821824;29;87240;-71